sensor_id;sensor_type;location;lat;lon;timestamp;P1;durP1;ratioP1;P2;durP2;ratioP2
17347;SDS011;8791;50.876;4.342;2022-10-18T00:01:37;7.80;;;6.95;;
17347;SDS011;8791;50.876;4.342;2022-10-18T00:04:03;8.50;;;7.28;;
17347;SDS011;8791;50.876;4.342;2022-10-18T00:06:31;12.65;;;6.90;;
17347;SDS011;8791;50.876;4.342;2022-10-18T00:08:58;10.32;;;6.97;;
17347;SDS011;8791;50.876;4.342;2022-10-18T00:11:26;8.27;;;7.47;;
17347;SDS011;8791;50.876;4.342;2022-10-18T00:13:54;8.05;;;7.22;;
17347;SDS011;8791;50.876;4.342;2022-10-18T00:16:21;10.82;;;7.75;;
17347;SDS011;8791;50.876;4.342;2022-10-18T00:18:49;8.13;;;7.32;;
17347;SDS011;8791;50.876;4.342;2022-10-18T00:21:16;8.50;;;7.70;;
17347;SDS011;8791;50.876;4.342;2022-10-18T00:23:45;11.30;;;7.55;;
17347;SDS011;8791;50.876;4.342;2022-10-18T00:26:13;10.75;;;7.70;;
17347;SDS011;8791;50.876;4.342;2022-10-18T00:28:44;10.85;;;7.32;;
17347;SDS011;8791;50.876;4.342;2022-10-18T00:31:12;10.77;;;7.22;;
17347;SDS011;8791;50.876;4.342;2022-10-18T00:33:42;8.93;;;7.10;;
17347;SDS011;8791;50.876;4.342;2022-10-18T00:36:11;9.02;;;7.40;;
17347;SDS011;8791;50.876;4.342;2022-10-18T00:38:38;11.88;;;7.90;;
17347;SDS011;8791;50.876;4.342;2022-10-18T00:41:06;11.35;;;7.63;;
17347;SDS011;8791;50.876;4.342;2022-10-18T00:46:23;13.52;;;7.60;;
17347;SDS011;8791;50.876;4.342;2022-10-18T00:48:51;7.97;;;7.18;;
17347;SDS011;8791;50.876;4.342;2022-10-18T00:51:20;13.45;;;7.95;;
17347;SDS011;8791;50.876;4.342;2022-10-18T00:53:48;14.32;;;7.93;;
17347;SDS011;8791;50.876;4.342;2022-10-18T00:56:16;10.60;;;8.15;;
17347;SDS011;8791;50.876;4.342;2022-10-18T00:58:43;9.43;;;8.52;;
17347;SDS011;8791;50.876;4.342;2022-10-18T01:01:12;13.90;;;7.95;;
17347;SDS011;8791;50.876;4.342;2022-10-18T01:03:40;10.18;;;8.77;;
17347;SDS011;8791;50.876;4.342;2022-10-18T01:06:07;14.07;;;8.27;;
17347;SDS011;8791;50.876;4.342;2022-10-18T01:08:39;13.77;;;9.32;;
17347;SDS011;8791;50.876;4.342;2022-10-18T01:11:21;10.80;;;8.60;;
17347;SDS011;8791;50.876;4.342;2022-10-18T01:14:06;9.27;;;8.45;;
17347;SDS011;8791;50.876;4.342;2022-10-18T01:16:44;9.57;;;8.70;;
17347;SDS011;8791;50.876;4.342;2022-10-18T01:19:23;13.13;;;8.88;;
17347;SDS011;8791;50.876;4.342;2022-10-18T01:22:07;14.60;;;8.05;;
17347;SDS011;8791;50.876;4.342;2022-10-18T01:24:49;9.93;;;8.15;;
17347;SDS011;8791;50.876;4.342;2022-10-18T01:27:32;8.75;;;7.88;;
17347;SDS011;8791;50.876;4.342;2022-10-18T01:33:04;9.05;;;7.60;;
17347;SDS011;8791;50.876;4.342;2022-10-18T01:35:41;12.00;;;8.35;;
17347;SDS011;8791;50.876;4.342;2022-10-18T01:38:14;14.02;;;8.48;;
17347;SDS011;8791;50.876;4.342;2022-10-18T01:40:44;13.70;;;8.48;;
17347;SDS011;8791;50.876;4.342;2022-10-18T01:43:14;13.30;;;8.18;;
17347;SDS011;8791;50.876;4.342;2022-10-18T01:45:44;11.85;;;8.93;;
17347;SDS011;8791;50.876;4.342;2022-10-18T01:48:12;12.00;;;8.20;;
17347;SDS011;8791;50.876;4.342;2022-10-18T01:50:39;10.35;;;8.90;;
17347;SDS011;8791;50.876;4.342;2022-10-18T01:53:19;14.90;;;9.73;;
17347;SDS011;8791;50.876;4.342;2022-10-18T01:55:55;13.77;;;9.00;;
17347;SDS011;8791;50.876;4.342;2022-10-18T01:58:46;9.63;;;8.55;;
17347;SDS011;8791;50.876;4.342;2022-10-18T02:01:23;9.95;;;8.95;;
17347;SDS011;8791;50.876;4.342;2022-10-18T02:03:57;14.70;;;8.75;;
17347;SDS011;8791;50.876;4.342;2022-10-18T02:06:30;10.60;;;8.43;;
17347;SDS011;8791;50.876;4.342;2022-10-18T02:09:03;13.27;;;8.75;;
17347;SDS011;8791;50.876;4.342;2022-10-18T02:11:35;8.63;;;7.75;;
17347;SDS011;8791;50.876;4.342;2022-10-18T02:14:04;11.00;;;8.32;;
17347;SDS011;8791;50.876;4.342;2022-10-18T02:16:36;8.48;;;7.75;;
17347;SDS011;8791;50.876;4.342;2022-10-18T02:19:08;13.68;;;8.80;;
17347;SDS011;8791;50.876;4.342;2022-10-18T02:21:39;11.20;;;8.70;;
17347;SDS011;8791;50.876;4.342;2022-10-18T02:24:09;12.70;;;8.88;;
17347;SDS011;8791;50.876;4.342;2022-10-18T02:26:37;9.18;;;8.02;;
17347;SDS011;8791;50.876;4.342;2022-10-18T02:29:05;9.10;;;7.97;;
17347;SDS011;8791;50.876;4.342;2022-10-18T02:31:34;13.43;;;9.40;;
17347;SDS011;8791;50.876;4.342;2022-10-18T02:34:09;10.27;;;9.05;;
17347;SDS011;8791;50.876;4.342;2022-10-18T02:36:44;12.65;;;8.93;;
17347;SDS011;8791;50.876;4.342;2022-10-18T02:39:13;9.73;;;8.25;;
17347;SDS011;8791;50.876;4.342;2022-10-18T02:41:43;10.38;;;8.45;;
17347;SDS011;8791;50.876;4.342;2022-10-18T02:44:11;14.68;;;10.02;;
17347;SDS011;8791;50.876;4.342;2022-10-18T02:46:39;11.13;;;10.10;;
17347;SDS011;8791;50.876;4.342;2022-10-18T02:49:06;13.60;;;10.30;;
17347;SDS011;8791;50.876;4.342;2022-10-18T02:54:04;11.25;;;10.07;;
17347;SDS011;8791;50.876;4.342;2022-10-18T02:56:32;11.70;;;10.45;;
17347;SDS011;8791;50.876;4.342;2022-10-18T02:58:59;14.52;;;10.90;;
17347;SDS011;8791;50.876;4.342;2022-10-18T03:01:27;13.32;;;10.52;;
17347;SDS011;8791;50.876;4.342;2022-10-18T03:03:55;20.63;;;12.13;;
17347;SDS011;8791;50.876;4.342;2022-10-18T03:06:22;16.30;;;12.77;;
17347;SDS011;8791;50.876;4.342;2022-10-18T03:08:49;23.17;;;13.80;;
17347;SDS011;8791;50.876;4.342;2022-10-18T03:11:16;22.15;;;13.65;;
17347;SDS011;8791;50.876;4.342;2022-10-18T03:13:46;25.70;;;16.50;;
17347;SDS011;8791;50.876;4.342;2022-10-18T03:16:14;24.50;;;16.92;;
17347;SDS011;8791;50.876;4.342;2022-10-18T03:18:41;28.05;;;18.98;;
17347;SDS011;8791;50.876;4.342;2022-10-18T03:21:09;31.20;;;20.58;;
17347;SDS011;8791;50.876;4.342;2022-10-18T03:23:36;32.13;;;19.50;;
17347;SDS011;8791;50.876;4.342;2022-10-18T03:26:04;28.10;;;20.48;;
17347;SDS011;8791;50.876;4.342;2022-10-18T03:28:30;25.55;;;19.00;;
17347;SDS011;8791;50.876;4.342;2022-10-18T03:30:58;39.63;;;24.73;;
17347;SDS011;8791;50.876;4.342;2022-10-18T03:33:26;28.85;;;18.95;;
17347;SDS011;8791;50.876;4.342;2022-10-18T03:35:53;25.90;;;19.40;;
17347;SDS011;8791;50.876;4.342;2022-10-18T03:38:21;29.80;;;18.40;;
17347;SDS011;8791;50.876;4.342;2022-10-18T03:40:48;31.25;;;18.90;;
17347;SDS011;8791;50.876;4.342;2022-10-18T03:43:15;28.58;;;18.08;;
17347;SDS011;8791;50.876;4.342;2022-10-18T03:45:42;27.50;;;17.65;;
17347;SDS011;8791;50.876;4.342;2022-10-18T03:48:09;30.67;;;17.88;;
17347;SDS011;8791;50.876;4.342;2022-10-18T03:50:36;24.10;;;18.23;;
17347;SDS011;8791;50.876;4.342;2022-10-18T03:53:03;26.20;;;18.30;;
17347;SDS011;8791;50.876;4.342;2022-10-18T03:55:31;28.35;;;17.38;;
17347;SDS011;8791;50.876;4.342;2022-10-18T03:57:58;27.70;;;17.30;;
17347;SDS011;8791;50.876;4.342;2022-10-18T04:00:25;23.83;;;17.70;;
17347;SDS011;8791;50.876;4.342;2022-10-18T04:02:52;27.42;;;17.45;;
17347;SDS011;8791;50.876;4.342;2022-10-18T04:05:19;33.30;;;17.10;;
17347;SDS011;8791;50.876;4.342;2022-10-18T04:07:48;23.17;;;16.75;;
17347;SDS011;8791;50.876;4.342;2022-10-18T04:10:14;29.60;;;17.35;;
17347;SDS011;8791;50.876;4.342;2022-10-18T04:12:44;26.10;;;16.60;;
17347;SDS011;8791;50.876;4.342;2022-10-18T04:15:11;23.63;;;16.80;;
17347;SDS011;8791;50.876;4.342;2022-10-18T04:17:37;29.20;;;17.20;;
17347;SDS011;8791;50.876;4.342;2022-10-18T04:20:05;27.38;;;17.33;;
17347;SDS011;8791;50.876;4.342;2022-10-18T04:22:32;29.63;;;16.17;;
17347;SDS011;8791;50.876;4.342;2022-10-18T04:24:59;23.00;;;17.05;;
17347;SDS011;8791;50.876;4.342;2022-10-18T04:27:26;26.50;;;17.23;;
17347;SDS011;8791;50.876;4.342;2022-10-18T04:29:54;26.70;;;17.02;;
17347;SDS011;8791;50.876;4.342;2022-10-18T04:32:21;29.23;;;17.25;;
17347;SDS011;8791;50.876;4.342;2022-10-18T04:34:48;35.80;;;17.20;;
17347;SDS011;8791;50.876;4.342;2022-10-18T04:37:15;26.45;;;16.88;;
17347;SDS011;8791;50.876;4.342;2022-10-18T04:39:42;24.88;;;16.33;;
17347;SDS011;8791;50.876;4.342;2022-10-18T04:42:10;28.95;;;15.30;;
17347;SDS011;8791;50.876;4.342;2022-10-18T04:44:37;29.92;;;16.38;;
17347;SDS011;8791;50.876;4.342;2022-10-18T04:47:06;24.50;;;16.30;;
17347;SDS011;8791;50.876;4.342;2022-10-18T04:49:33;22.27;;;14.20;;
17347;SDS011;8791;50.876;4.342;2022-10-18T04:51:59;27.83;;;15.40;;
17347;SDS011;8791;50.876;4.342;2022-10-18T04:54:26;21.80;;;13.88;;
17347;SDS011;8791;50.876;4.342;2022-10-18T04:56:53;24.23;;;15.02;;
17347;SDS011;8791;50.876;4.342;2022-10-18T04:59:20;18.60;;;14.00;;
17347;SDS011;8791;50.876;4.342;2022-10-18T05:01:47;20.20;;;13.57;;
17347;SDS011;8791;50.876;4.342;2022-10-18T05:04:15;25.33;;;14.55;;
17347;SDS011;8791;50.876;4.342;2022-10-18T05:06:42;22.33;;;14.23;;
17347;SDS011;8791;50.876;4.342;2022-10-18T05:09:08;22.40;;;14.35;;
17347;SDS011;8791;50.876;4.342;2022-10-18T05:11:35;20.35;;;13.52;;
17347;SDS011;8791;50.876;4.342;2022-10-18T05:14:02;21.85;;;14.98;;
17347;SDS011;8791;50.876;4.342;2022-10-18T05:16:30;22.55;;;13.98;;
17347;SDS011;8791;50.876;4.342;2022-10-18T05:18:57;21.20;;;15.05;;
17347;SDS011;8791;50.876;4.342;2022-10-18T05:21:25;32.03;;;14.75;;
17347;SDS011;8791;50.876;4.342;2022-10-18T05:23:53;22.77;;;15.07;;
17347;SDS011;8791;50.876;4.342;2022-10-18T05:26:21;23.88;;;14.25;;
17347;SDS011;8791;50.876;4.342;2022-10-18T05:28:48;35.15;;;15.45;;
17347;SDS011;8791;50.876;4.342;2022-10-18T05:31:14;26.90;;;14.68;;
17347;SDS011;8791;50.876;4.342;2022-10-18T05:33:41;32.15;;;15.65;;
17347;SDS011;8791;50.876;4.342;2022-10-18T05:36:08;26.25;;;14.95;;
17347;SDS011;8791;50.876;4.342;2022-10-18T05:38:38;32.60;;;14.95;;
17347;SDS011;8791;50.876;4.342;2022-10-18T05:41:07;27.67;;;14.98;;
17347;SDS011;8791;50.876;4.342;2022-10-18T05:43:34;21.95;;;14.50;;
17347;SDS011;8791;50.876;4.342;2022-10-18T05:46:01;30.40;;;15.90;;
17347;SDS011;8791;50.876;4.342;2022-10-18T05:48:28;31.73;;;15.98;;
17347;SDS011;8791;50.876;4.342;2022-10-18T05:50:56;30.25;;;15.73;;
17347;SDS011;8791;50.876;4.342;2022-10-18T05:53:24;35.45;;;17.25;;
17347;SDS011;8791;50.876;4.342;2022-10-18T05:55:52;30.05;;;15.90;;
17347;SDS011;8791;50.876;4.342;2022-10-18T05:58:19;27.25;;;16.15;;
17347;SDS011;8791;50.876;4.342;2022-10-18T06:00:46;28.90;;;17.15;;
17347;SDS011;8791;50.876;4.342;2022-10-18T06:03:13;30.73;;;17.15;;
17347;SDS011;8791;50.876;4.342;2022-10-18T06:05:39;19.58;;;15.63;;
17347;SDS011;8791;50.876;4.342;2022-10-18T06:08:06;27.45;;;17.08;;
17347;SDS011;8791;50.876;4.342;2022-10-18T06:10:33;28.55;;;16.98;;
17347;SDS011;8791;50.876;4.342;2022-10-18T06:13:01;25.40;;;15.52;;
17347;SDS011;8791;50.876;4.342;2022-10-18T06:15:28;32.30;;;17.30;;
17347;SDS011;8791;50.876;4.342;2022-10-18T06:17:55;29.73;;;16.95;;
17347;SDS011;8791;50.876;4.342;2022-10-18T06:20:23;28.98;;;16.50;;
17347;SDS011;8791;50.876;4.342;2022-10-18T06:22:50;37.25;;;17.20;;
17347;SDS011;8791;50.876;4.342;2022-10-18T06:25:18;34.80;;;16.88;;
17347;SDS011;8791;50.876;4.342;2022-10-18T06:27:44;39.80;;;17.83;;
17347;SDS011;8791;50.876;4.342;2022-10-18T06:30:13;34.75;;;17.98;;
17347;SDS011;8791;50.876;4.342;2022-10-18T06:32:40;37.55;;;18.52;;
17347;SDS011;8791;50.876;4.342;2022-10-18T06:35:07;41.47;;;18.35;;
17347;SDS011;8791;50.876;4.342;2022-10-18T06:37:34;31.35;;;17.20;;
17347;SDS011;8791;50.876;4.342;2022-10-18T06:40:02;34.13;;;17.40;;
17347;SDS011;8791;50.876;4.342;2022-10-18T06:42:29;29.63;;;17.55;;
17347;SDS011;8791;50.876;4.342;2022-10-18T06:44:56;30.23;;;17.52;;
17347;SDS011;8791;50.876;4.342;2022-10-18T06:47:25;36.63;;;18.05;;
17347;SDS011;8791;50.876;4.342;2022-10-18T06:49:52;47.47;;;22.48;;
17347;SDS011;8791;50.876;4.342;2022-10-18T06:52:19;43.28;;;18.67;;
17347;SDS011;8791;50.876;4.342;2022-10-18T06:54:49;35.25;;;17.48;;
17347;SDS011;8791;50.876;4.342;2022-10-18T06:57:16;32.60;;;17.67;;
17347;SDS011;8791;50.876;4.342;2022-10-18T06:59:43;35.03;;;17.58;;
17347;SDS011;8791;50.876;4.342;2022-10-18T07:02:11;41.13;;;18.88;;
17347;SDS011;8791;50.876;4.342;2022-10-18T07:04:42;31.10;;;18.67;;
17347;SDS011;8791;50.876;4.342;2022-10-18T07:07:09;36.72;;;18.75;;
17347;SDS011;8791;50.876;4.342;2022-10-18T07:09:36;30.58;;;18.98;;
17347;SDS011;8791;50.876;4.342;2022-10-18T07:12:03;33.38;;;18.38;;
17347;SDS011;8791;50.876;4.342;2022-10-18T07:14:30;30.52;;;17.85;;
17347;SDS011;8791;50.876;4.342;2022-10-18T07:16:57;33.60;;;19.35;;
17347;SDS011;8791;50.876;4.342;2022-10-18T07:19:25;39.17;;;19.42;;
17347;SDS011;8791;50.876;4.342;2022-10-18T07:21:53;33.45;;;19.20;;
17347;SDS011;8791;50.876;4.342;2022-10-18T07:24:20;35.63;;;18.25;;
17347;SDS011;8791;50.876;4.342;2022-10-18T07:26:47;29.92;;;18.35;;
17347;SDS011;8791;50.876;4.342;2022-10-18T07:29:13;34.10;;;18.98;;
17347;SDS011;8791;50.876;4.342;2022-10-18T07:31:41;43.28;;;19.85;;
17347;SDS011;8791;50.876;4.342;2022-10-18T07:34:09;42.63;;;19.40;;
17347;SDS011;8791;50.876;4.342;2022-10-18T07:36:37;35.70;;;18.77;;
17347;SDS011;8791;50.876;4.342;2022-10-18T07:39:06;30.77;;;19.25;;
17347;SDS011;8791;50.876;4.342;2022-10-18T07:41:33;35.33;;;19.27;;
17347;SDS011;8791;50.876;4.342;2022-10-18T07:44:01;40.70;;;18.92;;
17347;SDS011;8791;50.876;4.342;2022-10-18T07:46:28;31.80;;;17.25;;
17347;SDS011;8791;50.876;4.342;2022-10-18T07:48:55;39.40;;;15.63;;
17347;SDS011;8791;50.876;4.342;2022-10-18T07:51:23;31.35;;;13.20;;
17347;SDS011;8791;50.876;4.342;2022-10-18T07:53:51;33.08;;;11.60;;
17347;SDS011;8791;50.876;4.342;2022-10-18T07:56:20;24.75;;;10.35;;
17347;SDS011;8791;50.876;4.342;2022-10-18T07:58:47;24.05;;;10.18;;
17347;SDS011;8791;50.876;4.342;2022-10-18T08:01:16;25.40;;;12.13;;
17347;SDS011;8791;50.876;4.342;2022-10-18T08:03:44;25.15;;;11.57;;
17347;SDS011;8791;50.876;4.342;2022-10-18T08:06:11;29.50;;;12.35;;
17347;SDS011;8791;50.876;4.342;2022-10-18T08:08:40;31.52;;;11.35;;
17347;SDS011;8791;50.876;4.342;2022-10-18T08:11:08;23.65;;;11.93;;
17347;SDS011;8791;50.876;4.342;2022-10-18T08:13:38;26.85;;;10.60;;
17347;SDS011;8791;50.876;4.342;2022-10-18T08:16:05;38.25;;;12.48;;
17347;SDS011;8791;50.876;4.342;2022-10-18T08:18:33;33.08;;;12.80;;
17347;SDS011;8791;50.876;4.342;2022-10-18T08:21:02;30.83;;;10.60;;
17347;SDS011;8791;50.876;4.342;2022-10-18T08:23:30;34.15;;;11.75;;
17347;SDS011;8791;50.876;4.342;2022-10-18T08:25:59;31.48;;;10.35;;
17347;SDS011;8791;50.876;4.342;2022-10-18T08:28:27;21.23;;;8.02;;
17347;SDS011;8791;50.876;4.342;2022-10-18T08:30:55;27.65;;;9.18;;
17347;SDS011;8791;50.876;4.342;2022-10-18T08:33:22;28.10;;;8.23;;
17347;SDS011;8791;50.876;4.342;2022-10-18T08:35:55;20.25;;;7.72;;
17347;SDS011;8791;50.876;4.342;2022-10-18T08:38:23;30.10;;;7.88;;
17347;SDS011;8791;50.876;4.342;2022-10-18T08:40:50;25.50;;;8.40;;
17347;SDS011;8791;50.876;4.342;2022-10-18T08:43:21;27.75;;;7.30;;
17347;SDS011;8791;50.876;4.342;2022-10-18T08:45:58;23.45;;;6.50;;
17347;SDS011;8791;50.876;4.342;2022-10-18T08:48:28;31.00;;;5.97;;
17347;SDS011;8791;50.876;4.342;2022-10-18T08:50:59;21.63;;;6.07;;
17347;SDS011;8791;50.876;4.342;2022-10-18T08:53:28;27.02;;;6.15;;
17347;SDS011;8791;50.876;4.342;2022-10-18T08:56:00;22.13;;;7.60;;
17347;SDS011;8791;50.876;4.342;2022-10-18T08:58:31;21.67;;;7.10;;
17347;SDS011;8791;50.876;4.342;2022-10-18T09:01:02;24.33;;;7.82;;
17347;SDS011;8791;50.876;4.342;2022-10-18T09:03:54;19.38;;;7.47;;
17347;SDS011;8791;50.876;4.342;2022-10-18T09:06:43;18.85;;;6.85;;
17347;SDS011;8791;50.876;4.342;2022-10-18T09:09:19;28.45;;;7.00;;
17347;SDS011;8791;50.876;4.342;2022-10-18T09:12:00;19.40;;;6.72;;
17347;SDS011;8791;50.876;4.342;2022-10-18T09:17:41;22.30;;;8.02;;
17347;SDS011;8791;50.876;4.342;2022-10-18T09:20:18;24.63;;;7.28;;
17347;SDS011;8791;50.876;4.342;2022-10-18T09:22:50;24.67;;;7.28;;
17347;SDS011;8791;50.876;4.342;2022-10-18T09:25:19;26.08;;;7.38;;
17347;SDS011;8791;50.876;4.342;2022-10-18T09:27:52;22.27;;;9.77;;
17347;SDS011;8791;50.876;4.342;2022-10-18T09:33:10;21.05;;;9.27;;
17347;SDS011;8791;50.876;4.342;2022-10-18T09:35:51;20.23;;;8.38;;
17347;SDS011;8791;50.876;4.342;2022-10-18T09:38:23;29.75;;;8.35;;
17347;SDS011;8791;50.876;4.342;2022-10-18T09:40:55;25.50;;;8.05;;
17347;SDS011;8791;50.876;4.342;2022-10-18T09:43:24;15.25;;;8.25;;
17347;SDS011;8791;50.876;4.342;2022-10-18T09:45:57;32.03;;;8.65;;
17347;SDS011;8791;50.876;4.342;2022-10-18T09:48:26;16.52;;;7.10;;
17347;SDS011;8791;50.876;4.342;2022-10-18T09:50:56;23.58;;;6.97;;
17347;SDS011;8791;50.876;4.342;2022-10-18T09:53:29;29.40;;;6.95;;
17347;SDS011;8791;50.876;4.342;2022-10-18T09:56:02;20.80;;;7.40;;
17347;SDS011;8791;50.876;4.342;2022-10-18T09:58:39;25.52;;;6.82;;
17347;SDS011;8791;50.876;4.342;2022-10-18T10:01:09;27.85;;;8.38;;
17347;SDS011;8791;50.876;4.342;2022-10-18T10:03:39;27.77;;;8.68;;
17347;SDS011;8791;50.876;4.342;2022-10-18T10:06:14;21.95;;;8.23;;
17347;SDS011;8791;50.876;4.342;2022-10-18T10:08:48;26.08;;;10.07;;
17347;SDS011;8791;50.876;4.342;2022-10-18T10:11:28;19.42;;;8.52;;
17347;SDS011;8791;50.876;4.342;2022-10-18T10:14:07;30.70;;;8.98;;
17347;SDS011;8791;50.876;4.342;2022-10-18T10:16:50;24.27;;;8.27;;
17347;SDS011;8791;50.876;4.342;2022-10-18T10:19:21;29.85;;;7.82;;
17347;SDS011;8791;50.876;4.342;2022-10-18T10:21:52;29.13;;;7.75;;
17347;SDS011;8791;50.876;4.342;2022-10-18T10:24:23;22.50;;;6.88;;
17347;SDS011;8791;50.876;4.342;2022-10-18T10:27:00;22.65;;;6.75;;
17347;SDS011;8791;50.876;4.342;2022-10-18T10:32:21;21.92;;;6.20;;
17347;SDS011;8791;50.876;4.342;2022-10-18T10:34:52;14.70;;;4.97;;
17347;SDS011;8791;50.876;4.342;2022-10-18T10:37:23;17.45;;;4.72;;
17347;SDS011;8791;50.876;4.342;2022-10-18T10:42:47;35.13;;;5.70;;
17347;SDS011;8791;50.876;4.342;2022-10-18T10:45:29;22.05;;;4.70;;
17347;SDS011;8791;50.876;4.342;2022-10-18T10:48:06;20.08;;;3.70;;
17347;SDS011;8791;50.876;4.342;2022-10-18T10:56:17;16.75;;;3.88;;
17347;SDS011;8791;50.876;4.342;2022-10-18T10:58:48;17.15;;;3.78;;
17347;SDS011;8791;50.876;4.342;2022-10-18T11:01:21;27.23;;;3.67;;
17347;SDS011;8791;50.876;4.342;2022-10-18T11:03:54;16.65;;;3.30;;
17347;SDS011;8791;50.876;4.342;2022-10-18T11:06:31;24.83;;;3.95;;
17347;SDS011;8791;50.876;4.342;2022-10-18T11:12:13;15.88;;;3.58;;
17347;SDS011;8791;50.876;4.342;2022-10-18T11:14:49;11.27;;;2.60;;
17347;SDS011;8791;50.876;4.342;2022-10-18T11:17:25;16.10;;;3.22;;
17347;SDS011;8791;50.876;4.342;2022-10-18T11:20:12;19.10;;;2.80;;
17347;SDS011;8791;50.876;4.342;2022-10-18T11:22:58;18.48;;;2.58;;
17347;SDS011;8791;50.876;4.342;2022-10-18T11:25:32;19.67;;;3.72;;
17347;SDS011;8791;50.876;4.342;2022-10-18T11:28:09;30.95;;;9.75;;
17347;SDS011;8791;50.876;4.342;2022-10-18T11:30:45;12.82;;;3.22;;
17347;SDS011;8791;50.876;4.342;2022-10-18T11:33:26;14.77;;;3.45;;
17347;SDS011;8791;50.876;4.342;2022-10-18T11:36:03;17.20;;;3.20;;
17347;SDS011;8791;50.876;4.342;2022-10-18T11:38:39;16.25;;;3.03;;
17347;SDS011;8791;50.876;4.342;2022-10-18T11:41:16;18.48;;;3.33;;
17347;SDS011;8791;50.876;4.342;2022-10-18T11:43:58;20.65;;;3.28;;
17347;SDS011;8791;50.876;4.342;2022-10-18T11:46:33;18.45;;;4.38;;
17347;SDS011;8791;50.876;4.342;2022-10-18T11:49:24;21.52;;;6.43;;
17347;SDS011;8791;50.876;4.342;2022-10-18T11:52:09;22.13;;;3.17;;
17347;SDS011;8791;50.876;4.342;2022-10-18T11:54:55;12.60;;;2.83;;
17347;SDS011;8791;50.876;4.342;2022-10-18T11:57:36;18.00;;;3.00;;
17347;SDS011;8791;50.876;4.342;2022-10-18T12:00:18;15.23;;;2.70;;
17347;SDS011;8791;50.876;4.342;2022-10-18T12:03:02;16.05;;;3.13;;
17347;SDS011;8791;50.876;4.342;2022-10-18T12:05:40;18.25;;;3.28;;
17347;SDS011;8791;50.876;4.342;2022-10-18T12:08:11;11.02;;;3.00;;
17347;SDS011;8791;50.876;4.342;2022-10-18T12:10:42;14.85;;;2.67;;
17347;SDS011;8791;50.876;4.342;2022-10-18T12:13:15;20.58;;;2.70;;
17347;SDS011;8791;50.876;4.342;2022-10-18T12:15:47;12.32;;;3.40;;
17347;SDS011;8791;50.876;4.342;2022-10-18T12:18:15;14.95;;;2.95;;
17347;SDS011;8791;50.876;4.342;2022-10-18T12:20:44;19.67;;;2.50;;
17347;SDS011;8791;50.876;4.342;2022-10-18T12:23:14;11.32;;;2.80;;
17347;SDS011;8791;50.876;4.342;2022-10-18T12:25:46;14.23;;;2.33;;
17347;SDS011;8791;50.876;4.342;2022-10-18T12:28:19;16.00;;;2.45;;
17347;SDS011;8791;50.876;4.342;2022-10-18T12:30:53;17.80;;;2.15;;
17347;SDS011;8791;50.876;4.342;2022-10-18T12:33:25;17.40;;;2.70;;
17347;SDS011;8791;50.876;4.342;2022-10-18T12:35:59;19.42;;;2.45;;
17347;SDS011;8791;50.876;4.342;2022-10-18T12:38:35;16.92;;;2.60;;
17347;SDS011;8791;50.876;4.342;2022-10-18T12:41:09;9.38;;;1.92;;
17347;SDS011;8791;50.876;4.342;2022-10-18T12:43:49;8.50;;;1.80;;
17347;SDS011;8791;50.876;4.342;2022-10-18T12:46:18;13.20;;;2.47;;
17347;SDS011;8791;50.876;4.342;2022-10-18T12:48:47;10.07;;;2.70;;
17347;SDS011;8791;50.876;4.342;2022-10-18T12:51:27;18.40;;;2.20;;
17347;SDS011;8791;50.876;4.342;2022-10-18T12:53:56;9.93;;;2.05;;
17347;SDS011;8791;50.876;4.342;2022-10-18T12:56:42;24.98;;;3.50;;
17347;SDS011;8791;50.876;4.342;2022-10-18T13:02:30;15.48;;;2.28;;
17347;SDS011;8791;50.876;4.342;2022-10-18T13:05:53;7.78;;;1.58;;
17347;SDS011;8791;50.876;4.342;2022-10-18T13:14:11;9.70;;;1.92;;
17347;SDS011;8791;50.876;4.342;2022-10-18T13:17:03;10.02;;;2.22;;
17347;SDS011;8791;50.876;4.342;2022-10-18T13:19:43;10.77;;;2.22;;
17347;SDS011;8791;50.876;4.342;2022-10-18T13:22:23;16.65;;;2.10;;
17347;SDS011;8791;50.876;4.342;2022-10-18T13:25:11;8.68;;;1.88;;
17347;SDS011;8791;50.876;4.342;2022-10-18T13:27:46;12.32;;;1.90;;
17347;SDS011;8791;50.876;4.342;2022-10-18T13:30:23;10.23;;;2.22;;
17347;SDS011;8791;50.876;4.342;2022-10-18T13:32:58;8.73;;;2.00;;
17347;SDS011;8791;50.876;4.342;2022-10-18T13:35:42;7.38;;;1.80;;
17347;SDS011;8791;50.876;4.342;2022-10-18T13:38:29;9.82;;;2.13;;
17347;SDS011;8791;50.876;4.342;2022-10-18T13:41:12;13.35;;;1.77;;
17347;SDS011;8791;50.876;4.342;2022-10-18T13:56:02;15.32;;;2.00;;
17347;SDS011;8791;50.876;4.342;2022-10-18T13:58:42;17.40;;;2.63;;
17347;SDS011;8791;50.876;4.342;2022-10-18T14:01:21;9.48;;;1.95;;
17347;SDS011;8791;50.876;4.342;2022-10-18T14:06:58;13.23;;;3.38;;
17347;SDS011;8791;50.876;4.342;2022-10-18T14:09:29;12.93;;;2.63;;
17347;SDS011;8791;50.876;4.342;2022-10-18T14:12:06;11.50;;;2.03;;
17347;SDS011;8791;50.876;4.342;2022-10-18T14:14:42;10.15;;;1.75;;
17347;SDS011;8791;50.876;4.342;2022-10-18T14:17:14;10.88;;;1.75;;
17347;SDS011;8791;50.876;4.342;2022-10-18T14:19:51;7.43;;;1.95;;
17347;SDS011;8791;50.876;4.342;2022-10-18T14:22:25;6.80;;;1.63;;
17347;SDS011;8791;50.876;4.342;2022-10-18T14:24:57;15.13;;;1.95;;
17347;SDS011;8791;50.876;4.342;2022-10-18T14:27:24;11.07;;;2.30;;
17347;SDS011;8791;50.876;4.342;2022-10-18T14:30:06;9.10;;;1.90;;
17347;SDS011;8791;50.876;4.342;2022-10-18T14:32:34;12.27;;;2.38;;
17347;SDS011;8791;50.876;4.342;2022-10-18T14:35:01;11.93;;;2.25;;
17347;SDS011;8791;50.876;4.342;2022-10-18T14:37:31;7.45;;;1.83;;
17347;SDS011;8791;50.876;4.342;2022-10-18T14:40:00;12.55;;;2.30;;
17347;SDS011;8791;50.876;4.342;2022-10-18T14:42:28;10.45;;;1.85;;
17347;SDS011;8791;50.876;4.342;2022-10-18T14:44:55;13.10;;;2.17;;
17347;SDS011;8791;50.876;4.342;2022-10-18T14:47:24;12.38;;;2.17;;
17347;SDS011;8791;50.876;4.342;2022-10-18T14:49:51;10.95;;;2.28;;
17347;SDS011;8791;50.876;4.342;2022-10-18T14:52:22;10.90;;;2.20;;
17347;SDS011;8791;50.876;4.342;2022-10-18T14:54:54;11.77;;;1.83;;
17347;SDS011;8791;50.876;4.342;2022-10-18T14:57:22;15.57;;;2.00;;
17347;SDS011;8791;50.876;4.342;2022-10-18T14:59:53;7.57;;;1.85;;
17347;SDS011;8791;50.876;4.342;2022-10-18T15:02:23;8.65;;;2.33;;
17347;SDS011;8791;50.876;4.342;2022-10-18T15:04:55;8.25;;;2.40;;
17347;SDS011;8791;50.876;4.342;2022-10-18T15:07:24;14.00;;;3.13;;
17347;SDS011;8791;50.876;4.342;2022-10-18T15:09:55;14.15;;;3.40;;
17347;SDS011;8791;50.876;4.342;2022-10-18T15:12:23;12.45;;;2.90;;
17347;SDS011;8791;50.876;4.342;2022-10-18T15:14:50;7.75;;;2.10;;
17347;SDS011;8791;50.876;4.342;2022-10-18T15:17:19;6.32;;;2.05;;
17347;SDS011;8791;50.876;4.342;2022-10-18T15:19:53;9.50;;;1.83;;
17347;SDS011;8791;50.876;4.342;2022-10-18T15:22:23;9.73;;;2.38;;
17347;SDS011;8791;50.876;4.342;2022-10-18T15:25:07;8.27;;;2.47;;
17347;SDS011;8791;50.876;4.342;2022-10-18T15:27:40;8.15;;;2.20;;
17347;SDS011;8791;50.876;4.342;2022-10-18T15:32:55;12.45;;;2.50;;
17347;SDS011;8791;50.876;4.342;2022-10-18T15:35:25;13.57;;;2.53;;
17347;SDS011;8791;50.876;4.342;2022-10-18T15:37:53;13.52;;;2.38;;
17347;SDS011;8791;50.876;4.342;2022-10-18T15:40:36;11.65;;;2.05;;
17347;SDS011;8791;50.876;4.342;2022-10-18T15:43:05;14.43;;;2.70;;
17347;SDS011;8791;50.876;4.342;2022-10-18T15:46:01;15.25;;;2.50;;
17347;SDS011;8791;50.876;4.342;2022-10-18T15:48:30;10.93;;;2.67;;
17347;SDS011;8791;50.876;4.342;2022-10-18T15:50:59;10.18;;;2.45;;
17347;SDS011;8791;50.876;4.342;2022-10-18T15:53:33;8.85;;;2.60;;
17347;SDS011;8791;50.876;4.342;2022-10-18T15:56:06;12.05;;;2.30;;
17347;SDS011;8791;50.876;4.342;2022-10-18T15:58:37;12.10;;;2.80;;
17347;SDS011;8791;50.876;4.342;2022-10-18T16:01:12;11.43;;;2.40;;
17347;SDS011;8791;50.876;4.342;2022-10-18T16:03:41;7.35;;;2.42;;